createdAt,value
2018-04-30T00:00:47.316Z,15.10
2018-04-30T00:01:47.302Z,14.00
2018-04-30T00:02:47.293Z,15.10
2018-04-30T00:03:47.277Z,15.00
2018-04-30T00:04:47.262Z,14.80
2018-04-30T00:05:47.253Z,15.20
2018-04-30T00:06:47.238Z,14.00
2018-04-30T00:07:47.233Z,14.60
2018-04-30T00:08:47.213Z,15.30
2018-04-30T00:09:47.198Z,15.50
2018-04-30T00:10:47.191Z,13.70
2018-04-30T00:11:47.175Z,14.60
2018-04-30T00:12:47.162Z,14.70
2018-04-30T00:13:47.141Z,14.60
2018-04-30T00:14:47.130Z,17.40
2018-04-30T00:15:47.129Z,16.80
2018-04-30T00:16:47.103Z,15.10
2018-04-30T00:17:47.094Z,18.50
2018-04-30T00:18:47.077Z,14.90
2018-04-30T00:19:47.067Z,15.70
2018-04-30T00:20:47.056Z,15.70
2018-04-30T00:21:47.036Z,15.80
2018-04-30T00:22:47.024Z,15.50
2018-04-30T00:23:47.010Z,15.80
2018-04-30T00:24:47.002Z,16.00
2018-04-30T00:25:46.988Z,17.00
2018-04-30T00:26:46.970Z,15.10
2018-04-30T00:27:46.964Z,16.20
2018-04-30T00:28:46.943Z,17.10
2018-04-30T00:29:46.931Z,15.40
2018-04-30T00:30:46.922Z,14.60
2018-04-30T00:31:46.909Z,16.70
2018-04-30T00:32:46.892Z,16.70
2018-04-30T00:33:46.880Z,18.20
2018-04-30T00:34:46.864Z,19.40
2018-04-30T00:35:46.852Z,22.10
2018-04-30T00:36:46.838Z,24.40
2018-04-30T00:37:46.831Z,29.20
2018-04-30T00:38:46.811Z,27.90
2018-04-30T00:39:46.800Z,28.10
2018-04-30T00:40:46.787Z,30.40
2018-04-30T00:41:46.769Z,31.20
2018-04-30T00:42:46.758Z,31.70
2018-04-30T00:43:46.743Z,31.00
2018-04-30T00:44:46.729Z,30.30
2018-04-30T00:45:46.718Z,30.80
2018-04-30T00:46:46.703Z,31.70
2018-04-30T00:47:46.702Z,33.40
2018-04-30T00:48:46.681Z,35.30
2018-04-30T00:49:46.660Z,37.10
2018-04-30T00:50:46.707Z,37.90
2018-04-30T00:51:46.633Z,37.90
2018-04-30T00:52:46.622Z,38.70
2018-04-30T00:53:46.626Z,40.70
2018-04-30T00:54:46.594Z,40.20
2018-04-30T00:55:46.581Z,40.80
2018-04-30T00:56:46.565Z,44.00
2018-04-30T00:57:46.557Z,42.90
2018-04-30T00:58:46.541Z,44.90
2018-04-30T00:59:46.664Z,48.20
2018-04-30T01:00:46.507Z,51.60
2018-04-30T01:01:46.589Z,50.50
2018-04-30T01:02:46.481Z,49.20
2018-04-30T01:03:46.468Z,51.00
2018-04-30T01:04:46.451Z,51.20
2018-04-30T01:05:46.515Z,53.80
2018-04-30T01:06:46.424Z,49.90
2018-04-30T01:07:46.411Z,55.10
2018-04-30T01:08:46.397Z,54.70
2018-04-30T01:09:46.535Z,54.50
2018-04-30T01:10:46.372Z,51.00
2018-04-30T01:11:46.513Z,51.60
2018-04-30T01:12:46.340Z,47.60
2018-04-30T01:13:46.423Z,49.80
2018-04-30T01:14:46.309Z,51.30
2018-04-30T01:15:46.345Z,58.30
2018-04-30T01:16:46.281Z,55.40
2018-04-30T01:17:46.271Z,58.00
2018-04-30T01:18:46.251Z,57.10
2018-04-30T01:19:46.241Z,58.50
2018-04-30T01:20:46.227Z,56.50
2018-04-30T01:21:46.213Z,60.50
2018-04-30T01:22:46.194Z,60.60
2018-04-30T01:23:46.181Z,60.40
2018-04-30T01:24:46.168Z,58.20
2018-04-30T01:25:46.154Z,67.90
2018-04-30T01:26:46.142Z,62.10
2018-04-30T01:27:46.121Z,60.30
2018-04-30T01:28:46.106Z,58.20
2018-04-30T01:29:46.103Z,64.10
2018-04-30T01:30:46.077Z,61.40
2018-04-30T01:31:46.063Z,65.00
2018-04-30T01:32:46.054Z,68.50
2018-04-30T01:33:46.031Z,57.20
2018-04-30T01:34:46.020Z,60.00
2018-04-30T01:35:46.003Z,65.50
2018-04-30T01:36:45.990Z,60.70
2018-04-30T01:37:45.974Z,60.30
2018-04-30T01:38:45.962Z,61.70
2018-04-30T01:39:45.946Z,61.90
2018-04-30T01:40:45.935Z,62.90
2018-04-30T01:41:45.914Z,66.20
2018-04-30T01:42:45.905Z,59.70
2018-04-30T01:43:45.884Z,58.90
2018-04-30T01:44:45.875Z,62.30
2018-04-30T01:45:45.867Z,57.70
2018-04-30T01:46:45.843Z,61.70
2018-04-30T01:47:45.839Z,63.60
2018-04-30T01:48:45.813Z,62.30
2018-04-30T01:49:45.799Z,65.20
2018-04-30T01:50:45.783Z,58.20
2018-04-30T01:51:45.769Z,56.90
2018-04-30T01:52:45.762Z,61.40
2018-04-30T01:53:45.742Z,58.00
2018-04-30T01:54:45.722Z,61.40
2018-04-30T01:55:45.712Z,57.30
2018-04-30T01:56:45.691Z,60.50
2018-04-30T01:57:45.686Z,60.30
2018-04-30T01:58:45.675Z,62.00
2018-04-30T01:59:45.652Z,61.90
2018-04-30T02:00:45.635Z,60.00
2018-04-30T02:01:45.617Z,58.30
2018-04-30T02:02:45.612Z,61.20
2018-04-30T02:03:45.588Z,66.40
2018-04-30T02:04:45.572Z,61.50
2018-04-30T02:05:45.562Z,58.70
2018-04-30T02:06:45.546Z,59.20
2018-04-30T02:07:45.528Z,56.00
2018-04-30T02:08:45.517Z,57.30
2018-04-30T02:09:45.503Z,54.40
2018-04-30T02:10:45.488Z,62.70
2018-04-30T02:11:45.472Z,60.50
2018-04-30T02:12:45.459Z,59.80
2018-04-30T02:13:45.444Z,58.30
2018-04-30T02:14:45.433Z,56.10
2018-04-30T02:15:45.413Z,59.30
2018-04-30T02:16:45.402Z,59.10
2018-04-30T02:17:45.381Z,58.60
2018-04-30T02:18:45.374Z,61.70
2018-04-30T02:19:45.351Z,61.90
2018-04-30T02:20:45.339Z,58.50
2018-04-30T02:21:45.321Z,59.90
2018-04-30T02:22:45.311Z,62.40
2018-04-30T02:23:45.292Z,61.70
2018-04-30T02:24:45.275Z,57.60
2018-04-30T02:25:45.262Z,61.80
2018-04-30T02:26:45.247Z,60.60
2018-04-30T02:27:45.231Z,60.60
2018-04-30T02:28:45.224Z,63.10
2018-04-30T02:29:45.201Z,62.10
2018-04-30T02:30:45.191Z,56.40
2018-04-30T02:31:45.171Z,61.00
2018-04-30T02:32:45.160Z,57.40
2018-04-30T02:33:45.141Z,53.70
2018-04-30T02:34:45.132Z,55.70
2018-04-30T02:35:45.114Z,54.30
2018-04-30T02:36:45.099Z,59.30
2018-04-30T02:37:45.083Z,58.50
2018-04-30T02:38:45.067Z,54.20
2018-04-30T02:39:45.062Z,57.70
2018-04-30T02:40:45.052Z,60.80
2018-04-30T02:41:45.022Z,58.20
2018-04-30T02:42:45.026Z,55.10
2018-04-30T02:43:44.993Z,62.20
2018-04-30T02:44:44.980Z,64.30
2018-04-30T02:45:44.963Z,64.00
2018-04-30T02:46:44.952Z,63.40
2018-04-30T02:47:44.942Z,58.80
2018-04-30T02:48:44.927Z,59.20
2018-04-30T02:49:44.909Z,61.90
2018-04-30T02:50:44.985Z,58.20
2018-04-30T02:51:44.878Z,57.20
2018-04-30T02:52:45.014Z,52.90
2018-04-30T02:53:44.849Z,54.60
2018-04-30T02:54:44.835Z,62.50
2018-04-30T02:55:44.818Z,60.00
2018-04-30T02:56:44.872Z,59.20
2018-04-30T02:57:44.784Z,58.10
2018-04-30T02:58:44.822Z,60.20
2018-04-30T02:59:44.761Z,56.90
2018-04-30T03:00:44.743Z,66.60
2018-04-30T03:01:44.730Z,57.20
2018-04-30T03:02:44.862Z,57.70
2018-04-30T03:03:44.699Z,57.90
2018-04-30T03:04:44.681Z,61.00
2018-04-30T03:05:44.667Z,59.60
2018-04-30T03:06:44.752Z,63.40
2018-04-30T03:07:44.641Z,57.80
2018-04-30T03:08:44.690Z,60.60
2018-04-30T03:09:44.719Z,61.80
2018-04-30T03:10:44.592Z,63.00
2018-04-30T03:11:44.582Z,61.50
2018-04-30T03:12:44.560Z,55.40
2018-04-30T03:13:44.550Z,56.20
2018-04-30T03:14:44.539Z,58.10
2018-04-30T03:15:44.518Z,55.70
2018-04-30T03:16:44.500Z,54.80
2018-04-30T03:17:44.493Z,56.40
2018-04-30T03:18:44.474Z,53.70
2018-04-30T03:19:44.454Z,51.10
2018-04-30T03:20:44.439Z,53.20
2018-04-30T03:21:44.430Z,55.80
2018-04-30T03:22:44.411Z,52.40
2018-04-30T03:23:44.399Z,57.40
2018-04-30T03:24:44.379Z,55.50
2018-04-30T03:25:44.366Z,51.50
2018-04-30T03:26:44.350Z,52.70
2018-04-30T03:27:44.339Z,58.20
2018-04-30T03:28:44.321Z,54.20
2018-04-30T03:29:44.309Z,56.30
2018-04-30T03:30:44.293Z,55.20
2018-04-30T03:31:44.279Z,55.20
2018-04-30T03:32:44.259Z,54.30
2018-04-30T03:33:44.250Z,58.30
2018-04-30T03:34:44.244Z,55.80
2018-04-30T03:35:44.220Z,55.40
2018-04-30T03:36:44.210Z,59.00
2018-04-30T03:37:44.188Z,53.50
2018-04-30T03:38:44.179Z,59.90
2018-04-30T03:39:44.163Z,58.90
2018-04-30T03:40:44.151Z,57.70
2018-04-30T03:41:44.126Z,61.90
2018-04-30T03:42:44.114Z,65.60
2018-04-30T03:43:44.100Z,64.30
2018-04-30T03:44:44.088Z,66.50
2018-04-30T03:45:44.070Z,56.10
2018-04-30T03:46:44.057Z,57.90
2018-04-30T03:47:44.039Z,57.90
2018-04-30T03:48:44.029Z,61.00
2018-04-30T03:49:44.110Z,63.90
2018-04-30T03:50:43.994Z,59.40
2018-04-30T03:51:43.980Z,61.00
2018-04-30T03:52:43.966Z,62.80
2018-04-30T03:53:43.949Z,59.40
2018-04-30T03:54:43.937Z,58.30
2018-04-30T03:55:43.921Z,61.30
2018-04-30T03:56:43.904Z,58.60
2018-04-30T03:57:43.891Z,61.70
2018-04-30T03:58:43.875Z,59.30
2018-04-30T03:59:43.861Z,57.90
2018-04-30T04:00:43.848Z,59.00
2018-04-30T04:01:43.832Z,56.20
2018-04-30T04:02:43.821Z,54.80
2018-04-30T04:03:43.801Z,57.30
2018-04-30T04:04:43.789Z,53.70
2018-04-30T04:05:43.777Z,55.30
2018-04-30T04:06:43.756Z,56.80
2018-04-30T04:07:43.756Z,56.40
2018-04-30T04:08:43.731Z,58.50
2018-04-30T04:09:43.712Z,55.00
2018-04-30T04:10:43.697Z,58.10
2018-04-30T04:11:43.687Z,53.90
2018-04-30T04:12:43.744Z,56.90
2018-04-30T04:13:43.652Z,57.20
2018-04-30T04:14:43.641Z,55.20
2018-04-30T04:15:43.619Z,57.10
2018-04-30T04:16:43.618Z,55.50
2018-04-30T04:17:43.591Z,57.50
2018-04-30T04:18:43.581Z,53.70
2018-04-30T04:19:43.565Z,58.60
2018-04-30T04:20:43.546Z,57.60
2018-04-30T04:21:43.536Z,57.20
2018-04-30T04:22:43.521Z,60.60
2018-04-30T04:23:43.501Z,61.50
2018-04-30T04:24:43.489Z,59.70
2018-04-30T04:25:43.472Z,60.80
2018-04-30T04:26:43.461Z,62.90
2018-04-30T04:27:43.440Z,62.20
2018-04-30T04:28:43.427Z,61.70
2018-04-30T04:29:43.414Z,59.40
2018-04-30T04:30:43.399Z,68.30
2018-04-30T04:31:43.382Z,63.20
2018-04-30T04:32:43.369Z,64.20
2018-04-30T04:33:43.349Z,64.80
2018-04-30T04:34:43.344Z,60.90
2018-04-30T04:35:43.324Z,63.50
2018-04-30T04:36:43.309Z,66.00
2018-04-30T04:37:43.384Z,66.60
2018-04-30T04:38:43.276Z,65.50
2018-04-30T04:39:43.384Z,68.00
2018-04-30T04:40:43.244Z,68.20
2018-04-30T04:41:43.295Z,64.90
2018-04-30T04:42:43.216Z,67.10
2018-04-30T04:43:43.200Z,71.70
2018-04-30T04:44:43.180Z,71.90
2018-04-30T04:45:43.171Z,65.00
2018-04-30T04:46:43.150Z,66.60
2018-04-30T04:47:43.140Z,67.30
2018-04-30T04:48:43.122Z,67.90
2018-04-30T04:49:43.112Z,72.30
2018-04-30T04:50:43.089Z,71.00
2018-04-30T04:51:43.083Z,70.70
2018-04-30T04:52:43.060Z,69.50
2018-04-30T04:53:43.149Z,70.20
2018-04-30T04:54:43.030Z,71.00
2018-04-30T04:55:43.015Z,67.00
2018-04-30T04:56:42.998Z,69.70
2018-04-30T04:57:42.981Z,65.60
2018-04-30T04:58:42.967Z,68.70
2018-04-30T04:59:42.951Z,63.10
2018-04-30T05:00:42.951Z,62.40
2018-04-30T05:01:42.920Z,69.20
2018-04-30T05:02:42.906Z,63.40
2018-04-30T05:03:42.889Z,65.00
2018-04-30T05:04:42.874Z,68.00
2018-04-30T05:05:42.859Z,62.90
2018-04-30T05:06:42.850Z,62.70
2018-04-30T05:07:42.830Z,65.50
2018-04-30T05:08:42.810Z,64.50
2018-04-30T05:09:42.808Z,64.40
2018-04-30T05:10:42.780Z,69.70
2018-04-30T05:11:42.770Z,64.20
2018-04-30T05:12:42.749Z,68.10
2018-04-30T05:13:42.736Z,70.30
2018-04-30T05:14:42.720Z,68.60
2018-04-30T05:15:42.701Z,68.00
2018-04-30T05:16:42.694Z,68.90
2018-04-30T05:17:42.675Z,67.70
2018-04-30T05:18:42.660Z,68.40
2018-04-30T05:19:42.641Z,73.10
2018-04-30T05:20:42.631Z,69.40
2018-04-30T05:21:42.610Z,69.20
2018-04-30T05:22:42.595Z,73.80
2018-04-30T05:23:42.586Z,76.10
2018-04-30T05:24:42.566Z,79.80
2018-04-30T05:25:42.551Z,81.40
2018-04-30T05:26:42.542Z,79.00
2018-04-30T05:27:42.520Z,77.70
2018-04-30T05:28:42.506Z,78.20
2018-04-30T05:29:42.486Z,77.70
2018-04-30T05:30:42.472Z,79.20
2018-04-30T05:31:42.465Z,79.90
2018-04-30T05:32:42.440Z,79.60
2018-04-30T05:33:42.430Z,81.60
2018-04-30T05:34:42.414Z,81.90
2018-04-30T05:35:42.401Z,85.70
2018-04-30T05:36:42.378Z,83.90
2018-04-30T05:37:42.380Z,77.20
2018-04-30T05:38:42.360Z,80.50
2018-04-30T05:39:42.339Z,79.10
2018-04-30T05:40:42.319Z,79.70
2018-04-30T05:41:42.302Z,78.40
2018-04-30T05:42:42.292Z,80.70
2018-04-30T05:43:42.278Z,76.80
2018-04-30T05:44:42.260Z,76.40
2018-04-30T05:45:42.240Z,75.00
2018-04-30T05:46:42.229Z,79.10
2018-04-30T05:47:42.210Z,82.10
2018-04-30T05:48:42.200Z,81.00
2018-04-30T05:49:42.181Z,75.20
2018-04-30T05:50:42.166Z,77.20
2018-04-30T05:51:42.151Z,75.30
2018-04-30T05:52:42.136Z,71.90
2018-04-30T05:53:42.119Z,79.30
2018-04-30T05:54:42.102Z,75.50
2018-04-30T05:55:42.088Z,72.60
2018-04-30T05:56:42.073Z,71.30
2018-04-30T05:57:42.062Z,79.60
2018-04-30T05:58:42.046Z,77.00
2018-04-30T05:59:42.032Z,82.50
2018-04-30T06:00:42.013Z,75.60
2018-04-30T06:01:42.002Z,79.80
2018-04-30T06:02:41.986Z,79.90
2018-04-30T06:03:41.970Z,78.40
2018-04-30T06:04:41.961Z,78.30
2018-04-30T06:05:41.940Z,80.60
2018-04-30T06:06:41.991Z,82.30
2018-04-30T06:07:41.916Z,84.30
2018-04-30T06:08:41.900Z,68.40
2018-04-30T06:09:41.876Z,73.30
2018-04-30T06:10:41.860Z,82.60
2018-04-30T06:11:41.844Z,84.90
2018-04-30T06:12:41.829Z,83.10
2018-04-30T06:13:41.813Z,89.70
2018-04-30T06:14:41.799Z,87.40
2018-04-30T06:15:41.783Z,87.80
2018-04-30T06:16:41.769Z,92.40
2018-04-30T06:17:41.750Z,78.70
2018-04-30T06:18:41.740Z,90.30
2018-04-30T06:19:41.720Z,87.70
2018-04-30T06:20:41.710Z,93.20
2018-04-30T06:21:41.691Z,81.50
2018-04-30T06:22:41.678Z,88.60
2018-04-30T06:23:41.660Z,77.20
2018-04-30T06:24:41.651Z,89.50
2018-04-30T06:25:41.628Z,93.40
2018-04-30T06:26:41.650Z,91.40
2018-04-30T06:27:41.596Z,93.70
2018-04-30T06:28:41.583Z,90.50
2018-04-30T06:29:41.570Z,90.50
2018-04-30T06:30:41.564Z,90.80
2018-04-30T06:31:41.541Z,90.30
2018-04-30T06:32:41.524Z,87.70
2018-04-30T06:33:41.503Z,98.40
2018-04-30T06:34:41.494Z,88.70
2018-04-30T06:35:41.555Z,92.30
2018-04-30T06:36:41.468Z,90.80
2018-04-30T06:37:41.451Z,83.80
2018-04-30T06:38:41.433Z,80.50
2018-04-30T06:39:41.425Z,79.70
2018-04-30T06:40:41.416Z,86.70
2018-04-30T06:41:41.383Z,86.40
2018-04-30T06:42:41.370Z,83.60
2018-04-30T06:43:41.351Z,84.50
2018-04-30T06:44:41.355Z,80.30
2018-04-30T06:45:41.369Z,81.60
2018-04-30T06:46:41.322Z,79.80
2018-04-30T06:47:41.300Z,82.90
2018-04-30T06:48:41.276Z,83.90
2018-04-30T06:49:41.262Z,76.40
2018-04-30T06:50:41.251Z,72.10
2018-04-30T06:51:41.238Z,67.70
2018-04-30T06:52:41.221Z,64.20
2018-04-30T06:53:41.202Z,68.70
2018-04-30T06:54:41.190Z,67.60
2018-04-30T06:55:41.174Z,59.60
2018-04-30T06:56:41.164Z,67.00
2018-04-30T06:57:41.145Z,63.90
2018-04-30T06:58:41.134Z,63.70
2018-04-30T06:59:41.109Z,68.40
2018-04-30T07:00:41.101Z,66.00
2018-04-30T07:01:41.078Z,59.10
2018-04-30T07:02:41.071Z,57.60
2018-04-30T07:03:41.053Z,62.40
2018-04-30T07:04:41.045Z,60.10
2018-04-30T07:05:41.019Z,53.70
2018-04-30T07:06:41.003Z,59.60
2018-04-30T07:07:40.993Z,54.40
2018-04-30T07:08:40.985Z,53.00
2018-04-30T07:09:41.113Z,53.00
2018-04-30T07:10:40.970Z,50.00
2018-04-30T07:11:40.929Z,49.00
2018-04-30T07:12:40.914Z,44.50
2018-04-30T07:13:40.901Z,40.60
2018-04-30T07:14:40.880Z,34.80
2018-04-30T07:15:40.876Z,37.70
2018-04-30T07:16:40.858Z,37.10
2018-04-30T07:17:40.836Z,34.80
2018-04-30T07:18:40.820Z,31.90
2018-04-30T07:19:40.811Z,30.80
2018-04-30T07:20:40.790Z,31.30
2018-04-30T07:21:40.781Z,29.90
2018-04-30T07:22:40.760Z,28.70
2018-04-30T07:23:40.746Z,28.60
2018-04-30T07:24:40.731Z,27.30
2018-04-30T07:25:40.726Z,26.40
2018-04-30T07:26:40.711Z,24.60
2018-04-30T07:27:40.772Z,25.20
2018-04-30T07:28:40.672Z,25.90
2018-04-30T07:29:40.662Z,23.50
2018-04-30T07:30:40.647Z,25.40
2018-04-30T07:31:40.628Z,23.70
2018-04-30T07:32:40.613Z,24.50
2018-04-30T07:33:40.598Z,25.70
2018-04-30T07:34:40.635Z,22.50
2018-04-30T07:35:40.571Z,23.60
2018-04-30T07:36:40.551Z,22.90
2018-04-30T07:37:40.541Z,21.90
2018-04-30T07:38:40.531Z,21.10
2018-04-30T07:39:40.511Z,20.70
2018-04-30T07:40:40.493Z,19.90
2018-04-30T07:41:40.482Z,18.80
2018-04-30T07:42:40.467Z,16.70
2018-04-30T07:43:40.453Z,17.00
2018-04-30T07:44:40.441Z,18.50
2018-04-30T07:45:40.435Z,17.50
2018-04-30T07:46:40.409Z,16.60
2018-04-30T07:47:40.407Z,17.00
2018-04-30T07:48:40.382Z,15.30
2018-04-30T07:49:40.367Z,13.80
2018-04-30T07:50:40.349Z,13.30
2018-04-30T07:51:40.339Z,12.70
2018-04-30T07:52:40.316Z,12.20
2018-04-30T07:53:40.308Z,12.80
2018-04-30T07:54:40.329Z,12.10
2018-04-30T07:55:40.283Z,12.20
2018-04-30T07:56:40.261Z,10.80
2018-04-30T07:57:40.251Z,11.30
2018-04-30T07:58:40.233Z,9.70
2018-04-30T07:59:40.224Z,9.70
2018-04-30T08:00:40.200Z,9.70
2018-04-30T08:01:40.190Z,9.50
2018-04-30T08:02:40.194Z,8.20
2018-04-30T08:03:40.160Z,7.80
2018-04-30T08:04:40.150Z,7.90
2018-04-30T08:05:40.128Z,7.80
2018-04-30T08:06:40.119Z,7.60
2018-04-30T08:07:40.101Z,6.40
2018-04-30T08:08:40.089Z,7.20
2018-04-30T08:09:40.077Z,6.50
2018-04-30T08:10:40.053Z,6.80
2018-04-30T08:11:40.041Z,6.40
2018-04-30T08:12:40.031Z,7.00
2018-04-30T08:13:40.019Z,6.50
2018-04-30T08:14:40.001Z,6.60
2018-04-30T08:15:39.986Z,5.20
2018-04-30T08:16:39.971Z,5.90
2018-04-30T08:17:39.974Z,5.80
2018-04-30T08:18:39.935Z,5.00
2018-04-30T08:19:39.920Z,6.00
2018-04-30T08:20:39.903Z,6.30
2018-04-30T08:21:39.888Z,6.00
2018-04-30T08:22:39.881Z,6.00
2018-04-30T08:23:39.900Z,6.20
2018-04-30T08:24:39.844Z,6.80
2018-04-30T08:25:39.837Z,6.50
2018-04-30T08:26:39.814Z,5.90
2018-04-30T08:27:39.800Z,6.50
2018-04-30T08:28:39.791Z,6.90
2018-04-30T08:29:39.783Z,7.70
2018-04-30T08:30:39.752Z,7.90
2018-04-30T08:31:39.757Z,7.40
2018-04-30T08:32:39.729Z,6.60
2018-04-30T08:33:39.711Z,7.50
2018-04-30T08:34:39.691Z,6.20
2018-04-30T08:35:39.676Z,6.30
2018-04-30T08:36:39.681Z,6.20
2018-04-30T08:37:39.651Z,6.10
2018-04-30T08:38:39.633Z,6.20
2018-04-30T08:39:39.621Z,6.00
2018-04-30T08:40:39.606Z,5.70
2018-04-30T08:41:39.585Z,4.80
2018-04-30T08:42:39.599Z,5.10
2018-04-30T08:43:39.560Z,4.90
2018-04-30T08:44:39.556Z,4.80
2018-04-30T08:45:39.534Z,5.20
2018-04-30T08:46:39.513Z,4.90
2018-04-30T08:47:39.501Z,5.20
2018-04-30T08:48:39.481Z,5.50
2018-04-30T08:49:39.472Z,5.90
2018-04-30T08:50:39.452Z,5.90
2018-04-30T08:51:39.448Z,6.40
2018-04-30T08:52:39.423Z,5.40
2018-04-30T08:53:39.406Z,5.20
2018-04-30T08:54:39.393Z,5.20
2018-04-30T08:55:39.382Z,5.60
2018-04-30T08:56:39.359Z,4.50
2018-04-30T08:57:39.344Z,3.60
2018-04-30T08:58:39.329Z,3.40
2018-04-30T08:59:39.320Z,3.60
2018-04-30T09:00:39.375Z,4.70
2018-04-30T09:01:39.289Z,3.30
2018-04-30T09:02:39.282Z,2.40
2018-04-30T09:03:39.260Z,2.70
2018-04-30T09:04:39.246Z,3.00
2018-04-30T09:05:39.222Z,2.50
2018-04-30T09:06:39.207Z,2.50
2018-04-30T09:07:39.191Z,4.30
2018-04-30T09:08:39.176Z,3.10
2018-04-30T09:09:39.242Z,2.40
2018-04-30T09:10:39.155Z,2.90
2018-04-30T09:11:39.138Z,2.60
2018-04-30T09:12:39.116Z,3.30
2018-04-30T09:13:39.102Z,2.60
2018-04-30T09:14:39.088Z,2.70
2018-04-30T09:15:39.119Z,2.60
2018-04-30T09:16:39.057Z,2.20
2018-04-30T09:17:39.039Z,2.90
2018-04-30T09:18:39.032Z,3.50
2018-04-30T09:19:39.008Z,2.30
2018-04-30T09:20:38.990Z,2.40
2018-04-30T09:21:39.032Z,3.00
2018-04-30T09:22:38.971Z,3.60
2018-04-30T09:23:38.945Z,2.40
2018-04-30T09:24:38.932Z,2.10
2018-04-30T09:25:38.971Z,2.20
2018-04-30T09:26:38.915Z,2.60
2018-04-30T09:27:38.902Z,2.70
2018-04-30T09:28:38.877Z,2.80
2018-04-30T09:29:38.862Z,3.20
2018-04-30T09:30:38.851Z,3.10
2018-04-30T09:31:38.831Z,2.90
2018-04-30T09:32:38.811Z,3.20
2018-04-30T09:33:38.792Z,3.90
2018-04-30T09:34:38.783Z,2.50
2018-04-30T09:35:38.763Z,2.50
2018-04-30T09:36:38.751Z,2.60
2018-04-30T09:37:38.733Z,2.90
2018-04-30T09:38:38.726Z,3.00
2018-04-30T09:39:38.755Z,2.70
2018-04-30T09:40:38.690Z,2.60
2018-04-30T09:41:38.675Z,2.90
2018-04-30T09:42:38.654Z,3.10
2018-04-30T09:43:38.642Z,3.90
2018-04-30T09:44:38.624Z,2.70
2018-04-30T09:45:38.618Z,3.20
2018-04-30T09:46:38.652Z,3.70
2018-04-30T09:47:38.585Z,2.70
2018-04-30T09:48:38.565Z,3.80
2018-04-30T09:49:38.549Z,4.70
2018-04-30T09:50:38.533Z,2.70
2018-04-30T09:51:38.522Z,4.60
2018-04-30T09:52:38.502Z,4.40
2018-04-30T09:53:38.486Z,3.90
2018-04-30T09:54:38.462Z,3.50
2018-04-30T09:55:38.452Z,3.50
2018-04-30T09:56:38.441Z,3.80
2018-04-30T09:57:38.479Z,3.90
2018-04-30T09:58:38.402Z,3.70
2018-04-30T09:59:38.389Z,4.20
2018-04-30T10:00:38.372Z,4.80
2018-04-30T10:01:38.367Z,4.00
2018-04-30T10:02:38.341Z,6.70
2018-04-30T10:03:38.332Z,4.70
2018-04-30T10:04:38.318Z,5.00
2018-04-30T10:05:38.297Z,4.90
2018-04-30T10:06:38.280Z,4.80
2018-04-30T10:07:38.281Z,4.60
2018-04-30T10:08:38.252Z,4.90
2018-04-30T10:09:38.237Z,5.40
2018-04-30T10:10:38.222Z,4.30
2018-04-30T10:11:38.204Z,4.80
2018-04-30T10:12:38.194Z,5.10
2018-04-30T10:13:38.187Z,4.40
2018-04-30T10:14:38.161Z,5.30
2018-04-30T10:15:38.149Z,5.50
2018-04-30T10:16:38.133Z,6.40
2018-04-30T10:17:38.112Z,5.70
2018-04-30T10:18:38.097Z,4.70
2018-04-30T10:19:38.085Z,6.60
2018-04-30T10:20:38.069Z,4.50
2018-04-30T10:21:38.054Z,4.80
2018-04-30T10:22:38.036Z,4.50
2018-04-30T10:23:38.041Z,4.60
2018-04-30T10:24:38.010Z,4.50
2018-04-30T10:25:37.991Z,4.90
2018-04-30T10:26:37.981Z,4.70
2018-04-30T10:27:37.975Z,3.70
2018-04-30T10:28:37.990Z,4.10
2018-04-30T10:29:37.931Z,4.20
2018-04-30T10:30:37.922Z,4.00
2018-04-30T10:31:37.932Z,3.50
2018-04-30T10:32:37.891Z,3.70
2018-04-30T10:33:37.871Z,3.90
2018-04-30T10:34:37.872Z,3.70
2018-04-30T10:35:37.842Z,4.50
2018-04-30T10:36:37.833Z,4.70
2018-04-30T10:37:37.811Z,4.70
2018-04-30T10:38:37.796Z,5.00
2018-04-30T10:39:37.789Z,4.20
2018-04-30T10:40:37.772Z,4.90
2018-04-30T10:41:37.750Z,4.20
2018-04-30T10:42:37.737Z,5.00
2018-04-30T10:43:37.721Z,4.10
2018-04-30T10:44:37.715Z,5.30
2018-04-30T10:45:37.701Z,3.90
2018-04-30T10:46:37.682Z,4.10
2018-04-30T10:47:37.671Z,4.50
2018-04-30T10:48:37.650Z,4.80
2018-04-30T10:49:37.638Z,4.40
2018-04-30T10:50:37.630Z,4.40
2018-04-30T10:51:37.655Z,4.40
2018-04-30T10:52:37.599Z,6.30
2018-04-30T10:53:37.583Z,4.40
2018-04-30T10:54:37.585Z,4.60
2018-04-30T10:55:37.563Z,5.30
2018-04-30T10:56:37.552Z,4.40
2018-04-30T10:57:37.523Z,6.20
2018-04-30T10:58:37.514Z,3.80
2018-04-30T10:59:37.498Z,4.00
2018-04-30T11:00:37.600Z,4.10
2018-04-30T11:01:37.470Z,4.20
2018-04-30T11:02:37.622Z,5.20
2018-04-30T11:03:37.440Z,3.80
2018-04-30T11:04:37.475Z,4.80
2018-04-30T11:05:37.417Z,3.60
2018-04-30T11:06:37.403Z,3.30
2018-04-30T11:07:37.392Z,4.00
2018-04-30T11:08:37.472Z,3.10
2018-04-30T11:09:37.363Z,3.20
2018-04-30T11:10:37.344Z,4.10
2018-04-30T11:11:37.332Z,3.20
2018-04-30T11:12:37.351Z,4.30
2018-04-30T11:13:37.300Z,3.10
2018-04-30T11:14:37.289Z,3.20
2018-04-30T11:15:37.279Z,3.10
2018-04-30T11:16:37.262Z,2.60
2018-04-30T11:17:37.254Z,4.00
2018-04-30T11:18:37.304Z,3.70
2018-04-30T11:19:37.239Z,3.20
2018-04-30T11:20:37.211Z,3.30
2018-04-30T11:21:37.195Z,2.70
2018-04-30T11:22:37.194Z,2.70
2018-04-30T11:23:37.173Z,2.50
2018-04-30T11:24:37.162Z,3.60
2018-04-30T11:25:37.153Z,2.40
2018-04-30T11:26:37.150Z,2.50
2018-04-30T11:27:37.162Z,2.30
2018-04-30T11:28:37.112Z,3.40
2018-04-30T11:29:37.101Z,3.50
2018-04-30T11:30:37.098Z,3.10
2018-04-30T11:31:37.075Z,2.60
2018-04-30T11:32:37.071Z,2.20
2018-04-30T11:33:37.050Z,2.10
2018-04-30T11:34:37.040Z,4.30
2018-04-30T11:35:37.028Z,2.60
2018-04-30T11:36:37.014Z,3.00
2018-04-30T11:37:37.010Z,2.70
2018-04-30T11:38:36.994Z,4.00
2018-04-30T11:39:36.979Z,2.90
2018-04-30T11:40:36.967Z,2.80
2018-04-30T11:41:36.957Z,2.10
2018-04-30T11:42:36.953Z,2.90
2018-04-30T11:43:36.938Z,2.30
2018-04-30T11:44:36.921Z,2.40
2018-04-30T11:45:36.910Z,3.90
2018-04-30T11:46:36.903Z,1.90
2018-04-30T11:47:36.891Z,2.30
2018-04-30T11:48:36.948Z,2.30
2018-04-30T11:49:36.861Z,3.90
2018-04-30T11:50:36.848Z,2.90
2018-04-30T11:51:36.837Z,2.40
2018-04-30T11:52:36.821Z,2.60
2018-04-30T11:53:36.809Z,2.30
2018-04-30T11:54:36.804Z,2.70
2018-04-30T11:55:36.788Z,2.50
2018-04-30T11:56:36.777Z,3.90
2018-04-30T11:57:36.772Z,3.30
2018-04-30T11:58:36.787Z,2.20
2018-04-30T11:59:36.730Z,2.80
2018-04-30T12:00:36.722Z,3.30
2018-04-30T12:01:36.712Z,3.80
2018-04-30T12:02:36.691Z,2.40
2018-04-30T12:03:36.682Z,2.50
2018-04-30T12:04:36.665Z,4.20
2018-04-30T12:05:36.655Z,3.40
2018-04-30T12:06:36.644Z,2.80
2018-04-30T12:07:36.635Z,3.10
2018-04-30T12:08:36.620Z,2.60
2018-04-30T12:09:36.602Z,5.60
2018-04-30T12:10:36.592Z,3.00
2018-04-30T12:11:36.579Z,4.10
2018-04-30T12:12:36.562Z,3.40
2018-04-30T12:13:36.558Z,3.60
2018-04-30T12:14:36.538Z,3.70
2018-04-30T12:15:36.523Z,2.70
2018-04-30T12:16:36.530Z,4.50
2018-04-30T12:17:36.500Z,4.30
2018-04-30T12:18:36.485Z,4.40
2018-04-30T12:19:36.475Z,3.60
2018-04-30T12:20:36.466Z,3.50
2018-04-30T12:21:36.447Z,4.40
2018-04-30T12:22:36.437Z,2.90
2018-04-30T12:23:36.419Z,4.70
2018-04-30T12:24:36.405Z,3.70
2018-04-30T12:25:36.394Z,3.00
2018-04-30T12:26:36.385Z,2.60
2018-04-30T12:27:36.372Z,3.40
2018-04-30T12:28:36.357Z,2.40
2018-04-30T12:29:36.357Z,3.30
2018-04-30T12:30:36.335Z,3.00
2018-04-30T12:31:36.322Z,2.50
2018-04-30T12:32:36.306Z,5.00
2018-04-30T12:33:36.343Z,2.00
2018-04-30T12:34:36.280Z,3.70
2018-04-30T12:35:36.263Z,2.40
2018-04-30T12:36:36.250Z,3.20
2018-04-30T12:37:36.237Z,5.40
2018-04-30T12:38:36.220Z,3.00
2018-04-30T12:39:36.214Z,3.00
2018-04-30T12:40:36.202Z,4.80
2018-04-30T12:41:36.185Z,2.40
2018-04-30T12:42:36.171Z,3.00
2018-04-30T12:43:36.198Z,3.30
2018-04-30T12:44:36.143Z,3.20
2018-04-30T12:45:36.135Z,3.80
2018-04-30T12:46:36.120Z,3.20
2018-04-30T12:47:36.102Z,4.00
2018-04-30T12:48:36.090Z,2.50
2018-04-30T12:49:36.177Z,2.40
2018-04-30T12:50:36.071Z,3.20
2018-04-30T12:51:36.052Z,2.50
2018-04-30T12:52:36.040Z,2.30
2018-04-30T12:53:36.027Z,2.60
2018-04-30T12:54:36.020Z,4.00
2018-04-30T12:55:36.005Z,1.80
2018-04-30T12:56:35.996Z,3.00
2018-04-30T12:57:35.978Z,4.20
2018-04-30T12:58:35.964Z,4.60
2018-04-30T12:59:35.954Z,2.30
2018-04-30T13:00:35.943Z,2.10
2018-04-30T13:01:35.934Z,3.10
2018-04-30T13:02:35.968Z,2.80